Time;durP1;ratioP1;P1;durP2;ratioP2;P2;SDS_P1;SDS_P2;PMS_P1;PMS_P2;Temp;Humidity;BMP_temperature;BMP_pressure;BME280_temperature;BME280_humidity;BME280_pressure;Samples;Min_cycle;Max_cycle;Signal;HPM_P1;HPM_P2
2022/09/10 00:01:29;;;;;;;20.67;15.67;;;13.40;99.90;;;;;;10398203;28;20224;-76
2022/09/10 00:06:50;;;;;;;20.03;16.30;;;13.40;99.90;;;;;;10396917;28;20210;-77
2022/09/10 00:12:12;;;;;;;23.73;16.47;;;13.40;99.90;;;;;;10397680;28;20398;-77
2022/09/10 00:17:35;;;;;;;23.27;17.70;;;13.40;99.90;;;;;;10398275;28;20580;-77
2022/09/10 00:22:56;;;;;;;29.87;18.30;;;13.40;99.90;;;;;;10397156;28;20201;-77
2022/09/10 00:28:20;;;;;;;23.05;17.38;;;13.40;99.90;;;;;;10379030;28;20212;-77
2022/09/10 00:33:41;;;;;;;21.27;17.02;;;13.50;99.90;;;;;;10358003;28;20209;-77
2022/09/10 00:39:07;;;;;;;21.43;17.30;;;13.50;99.90;;;;;;10356859;28;20300;-77
2022/09/10 00:44:40;;;;;;;31.75;22.20;;;13.50;99.90;;;;;;10354611;28;20539;-77
2022/09/10 00:50:22;;;;;;;37.25;23.02;;;13.50;99.90;;;;;;10369158;28;20445;-77
2022/09/10 00:55:49;;;;;;;28.13;19.73;;;13.40;99.90;;;;;;10395966;28;20191;-77
2022/09/10 01:01:30;;;;;;;26.50;20.98;;;13.40;99.90;;;;;;10396039;28;20294;-76
2022/09/10 01:07:11;;;;;;;26.85;20.55;;;13.40;99.90;;;;;;10395472;28;20393;-76
2022/09/10 01:13:00;;;;;;;25.03;19.53;;;13.30;99.90;;;;;;10395098;28;20208;-76
2022/09/10 01:19:14;;;;;;;26.38;18.92;;;13.30;99.90;;;;;;10416417;28;20269;-77
2022/09/10 01:24:53;;;;;;;29.43;20.70;;;13.40;99.90;;;;;;10435051;28;20207;-76
2022/09/10 01:30:47;;;;;;;23.00;18.02;;;13.30;99.90;;;;;;10430259;28;20208;-79
2022/09/10 01:36:15;;;;;;;21.33;17.40;;;13.30;99.90;;;;;;10391626;28;20208;-78
2022/09/10 01:41:37;;;;;;;21.97;17.83;;;13.30;99.90;;;;;;10380286;28;20259;-76
2022/09/10 01:47:13;;;;;;;20.92;17.10;;;13.30;99.90;;;;;;10395257;28;20219;-75
2022/09/10 01:53:10;;;;;;;18.15;15.73;;;13.30;99.90;;;;;;10398390;28;20499;-76
2022/09/10 01:58:36;;;;;;;17.92;15.38;;;13.20;99.90;;;;;;10393211;28;20426;-77
2022/09/10 02:04:21;;;;;;;15.23;13.07;;;13.30;99.90;;;;;;10393300;28;20207;-78
2022/09/10 02:09:42;;;;;;;19.83;16.17;;;13.20;99.90;;;;;;10379484;28;20497;-77
2022/09/10 02:15:07;;;;;;;19.63;15.23;;;13.30;99.90;;;;;;10407152;28;20235;-77
2022/09/10 02:20:48;;;;;;;18.70;15.20;;;13.20;99.90;;;;;;10431803;28;20228;-77
2022/09/10 02:26:11;;;;;;;20.08;14.38;;;13.30;99.90;;;;;;10448294;28;20191;-76
2022/09/10 02:31:32;;;;;;;21.57;15.97;;;13.40;99.90;;;;;;10389207;28;20204;-76
2022/09/10 02:36:56;;;;;;;21.40;16.47;;;13.30;99.90;;;;;;10365740;28;20394;-76
2022/09/10 02:42:17;;;;;;;21.67;17.03;;;13.30;99.90;;;;;;10398275;28;20530;-76
2022/09/10 02:47:40;;;;;;;23.17;16.97;;;13.20;99.90;;;;;;10413965;28;20196;-76
2022/09/10 02:53:02;;;;;;;23.20;17.60;;;13.20;99.90;;;;;;10405965;28;20208;-76
2022/09/10 02:58:24;;;;;;;22.67;17.10;;;13.20;99.90;;;;;;10399606;28;20266;-77
2022/09/10 03:03:50;;;;;;;24.70;17.93;;;13.20;99.90;;;;;;10385286;28;20246;-76
2022/09/10 03:09:12;;;;;;;24.83;18.53;;;13.20;99.90;;;;;;10398970;28;20204;-79
2022/09/10 03:14:33;;;;;;;22.63;16.20;;;13.30;99.90;;;;;;10398874;28;20242;-76
2022/09/10 03:19:55;;;;;;;21.80;16.30;;;13.30;99.90;;;;;;10430349;28;20265;-76
2022/09/10 03:25:17;;;;;;;23.70;15.98;;;13.30;99.90;;;;;;10453881;28;20249;-76
2022/09/10 03:30:39;;;;;;;21.40;15.77;;;13.30;99.90;;;;;;10409130;28;20227;-76
2022/09/10 03:36:03;;;;;;;21.50;16.00;;;13.30;99.90;;;;;;10366360;28;20200;-76
2022/09/10 03:41:27;;;;;;;23.17;15.97;;;13.30;99.90;;;;;;10353183;28;20220;-76
2022/09/10 03:46:51;;;;;;;21.73;15.53;;;13.30;99.90;;;;;;10357453;28;20197;-77
2022/09/10 03:52:12;;;;;;;22.70;17.47;;;13.30;99.90;;;;;;10388211;28;20204;-77
2022/09/10 03:57:37;;;;;;;20.23;16.53;;;13.20;99.90;;;;;;10397598;28;20383;-76
2022/09/10 04:02:59;;;;;;;24.77;17.23;;;13.20;99.90;;;;;;10398069;28;20573;-76
2022/09/10 04:08:21;;;;;;;20.03;15.70;;;13.30;99.90;;;;;;10369027;28;20270;-76
2022/09/10 04:13:45;;;;;;;19.57;14.23;;;13.30;99.90;;;;;;10396952;28;20189;-76
2022/09/10 04:19:07;;;;;;;20.67;14.40;;;13.30;99.90;;;;;;10421805;28;20264;-76
2022/09/10 04:24:30;;;;;;;20.00;14.43;;;13.20;99.90;;;;;;10437199;28;20393;-76
2022/09/10 04:29:52;;;;;;;20.30;15.00;;;13.30;99.90;;;;;;10405379;28;20923;-78
2022/09/10 04:35:14;;;;;;;19.10;14.10;;;13.30;99.90;;;;;;10369286;28;20259;-78
2022/09/10 04:40:37;;;;;;;18.80;14.50;;;13.30;99.90;;;;;;10396841;28;20223;-78
2022/09/10 04:45:58;;;;;;;21.10;14.00;;;13.40;99.90;;;;;;10395448;28;20192;-78
2022/09/10 04:51:20;;;;;;;20.90;13.82;;;13.30;99.90;;;;;;10387286;28;20248;-76
2022/09/10 04:56:46;;;;;;;18.23;13.23;;;13.30;99.90;;;;;;10395546;28;20196;-77
2022/09/10 05:02:08;;;;;;;18.42;11.95;;;13.30;99.90;;;;;;10395306;28;20223;-76
2022/09/10 05:07:29;;;;;;;22.80;15.50;;;13.30;99.90;;;;;;10395595;28;20203;-76
2022/09/10 05:12:51;;;;;;;16.50;12.97;;;13.30;99.90;;;;;;10394738;28;20196;-76
2022/09/10 05:18:15;;;;;;;16.20;12.10;;;13.40;99.90;;;;;;10398370;28;20242;-77
2022/09/10 05:23:38;;;;;;;19.43;11.97;;;13.30;99.90;;;;;;10435460;28;20230;-79
2022/09/10 05:28:59;;;;;;;18.40;14.77;;;13.40;99.90;;;;;;10417658;28;20205;-78
2022/09/10 05:34:20;;;;;;;18.07;13.07;;;13.30;99.90;;;;;;10357994;28;20197;-79
2022/09/10 05:39:46;;;;;;;15.27;11.97;;;13.30;99.90;;;;;;10367650;28;20246;-78
2022/09/10 05:45:11;;;;;;;17.87;13.63;;;13.40;99.90;;;;;;10353740;28;20462;-77
2022/09/10 05:50:33;;;;;;;14.27;11.40;;;13.30;99.90;;;;;;10385081;28;20205;-77
2022/09/10 05:55:55;;;;;;;16.88;12.45;;;13.40;99.90;;;;;;10394028;28;20196;-77
2022/09/10 06:01:17;;;;;;;17.45;13.07;;;13.50;99.90;;;;;;10380205;28;20235;-77
2022/09/10 06:06:38;;;;;;;14.00;11.18;;;13.60;99.90;;;;;;10393576;28;20509;-77
2022/09/10 06:12:07;;;;;;;15.40;12.30;;;13.60;99.90;;;;;;10407584;28;20364;-76
2022/09/10 06:17:30;;;;;;;15.38;12.60;;;13.60;99.90;;;;;;10411164;28;20235;-77
2022/09/10 06:22:51;;;;;;;16.38;13.65;;;13.70;99.90;;;;;;10442333;28;20227;-76
2022/09/10 06:28:13;;;;;;;19.13;12.90;;;13.80;99.90;;;;;;10450943;28;20521;-76
2022/09/10 06:33:34;;;;;;;14.55;10.38;;;13.80;99.90;;;;;;10360310;28;20503;-76
2022/09/10 06:38:58;;;;;;;16.03;12.23;;;13.90;99.90;;;;;;10395686;28;20243;-77
2022/09/10 06:44:21;;;;;;;20.05;13.98;;;13.90;99.90;;;;;;10414224;28;20488;-77
2022/09/10 06:49:49;;;;;;;18.40;13.20;;;14.00;99.90;;;;;;10419921;28;20255;-75
2022/09/10 06:55:14;;;;;;;19.75;12.80;;;14.00;99.90;;;;;;10372775;28;20361;-78
2022/09/10 07:00:38;;;;;;;13.85;10.40;;;14.20;99.90;;;;;;10372706;28;20228;-75
2022/09/10 07:06:08;;;;;;;15.32;12.35;;;14.20;99.90;;;;;;10373117;28;20237;-76
2022/09/10 07:11:33;;;;;;;18.48;12.98;;;14.30;99.90;;;;;;10359315;28;20213;-78
2022/09/10 07:16:59;;;;;;;17.50;13.52;;;14.20;99.90;;;;;;10359444;28;20246;-78
2022/09/10 07:22:22;;;;;;;20.52;15.02;;;14.10;99.90;;;;;;10453653;28;20221;-75
2022/09/10 07:27:45;;;;;;;22.80;14.02;;;14.20;99.90;;;;;;10439115;28;20216;-78
2022/09/10 07:33:07;;;;;;;19.10;13.38;;;14.30;99.90;;;;;;10371749;28;20273;-76
2022/09/10 07:38:29;;;;;;;20.40;14.18;;;14.20;99.90;;;;;;10405812;28;20203;-77
2022/09/10 07:43:55;;;;;;;18.60;12.48;;;14.10;99.90;;;;;;10397955;28;20197;-77
2022/09/10 07:49:21;;;;;;;19.80;13.57;;;14.20;99.90;;;;;;10399607;28;20199;-78
2022/09/10 07:54:43;;;;;;;17.65;12.68;;;14.20;99.90;;;;;;10398326;28;20202;-78
2022/09/10 08:00:11;;;;;;;18.50;12.57;;;14.20;99.90;;;;;;10396662;28;20256;-76
2022/09/10 08:05:38;;;;;;;17.73;11.95;;;14.20;99.90;;;;;;10398107;28;20197;-77
2022/09/10 08:11:16;;;;;;;20.23;12.85;;;14.20;99.90;;;;;;10396472;28;20202;-77
2022/09/10 08:16:40;;;;;;;17.92;12.93;;;14.20;99.90;;;;;;10401306;28;20238;-76
2022/09/10 08:22:05;;;;;;;16.88;12.82;;;14.30;99.90;;;;;;10451164;28;20250;-76
2022/09/10 08:27:34;;;;;;;20.67;15.13;;;14.20;99.90;;;;;;10436959;28;20193;-77
2022/09/10 08:32:57;;;;;;;16.90;12.25;;;14.20;99.90;;;;;;10395574;28;20223;-78
2022/09/10 08:38:19;;;;;;;15.75;12.10;;;14.20;99.90;;;;;;10380483;28;20451;-77
2022/09/10 08:44:03;;;;;;;16.50;13.02;;;14.30;99.90;;;;;;10409487;28;20573;-79
2022/09/10 08:49:45;;;;;;;21.98;14.60;;;14.20;99.90;;;;;;10349561;28;20445;-77
2022/09/10 08:55:34;;;;;;;15.45;11.13;;;14.20;99.90;;;;;;10311829;28;20194;-77
2022/09/10 09:01:00;;;;;;;16.10;11.25;;;14.20;99.90;;;;;;10323940;28;20234;-76
2022/09/10 09:06:44;;;;;;;22.63;15.18;;;14.30;99.90;;;;;;10321397;28;20205;-76
2022/09/10 09:12:24;;;;;;;17.48;12.30;;;14.30;99.90;;;;;;10337515;28;20544;-76
2022/09/10 09:18:07;;;;;;;23.95;15.35;;;14.40;99.90;;;;;;10310148;28;20435;-78
2022/09/10 09:23:56;;;;;;;21.17;14.75;;;14.40;99.90;;;;;;10328877;28;20475;-78
2022/09/10 09:30:00;;;;;;;20.67;14.00;;;14.40;99.90;;;;;;10382914;28;20204;-75
2022/09/10 09:35:31;;;;;;;21.48;15.57;;;14.50;99.90;;;;;;10396979;28;20496;-76
2022/09/10 09:41:05;;;;;;;16.23;12.38;;;14.50;99.90;;;;;;10394143;28;20241;-75
2022/09/10 09:46:27;;;;;;;15.13;11.18;;;14.60;99.90;;;;;;10394111;28;20266;-76
2022/09/10 09:51:53;;;;;;;13.20;9.35;;;14.70;99.90;;;;;;10406344;28;20204;-76
2022/09/10 09:57:18;;;;;;;9.95;8.50;;;14.70;99.90;;;;;;10402088;28;20194;-75
2022/09/10 10:02:39;;;;;;;10.63;9.13;;;14.90;99.90;;;;;;10400648;28;20225;-75
2022/09/10 10:08:01;;;;;;;13.25;9.30;;;15.00;99.90;;;;;;10401872;28;20201;-76
2022/09/10 10:13:23;;;;;;;11.70;9.35;;;15.10;99.90;;;;;;10402352;28;20282;-76
2022/09/10 10:18:45;;;;;;;12.65;8.40;;;15.10;99.90;;;;;;10422460;28;20238;-77
2022/09/10 10:24:30;;;;;;;12.73;9.95;;;15.20;99.90;;;;;;10427673;28;20222;-75
2022/09/10 10:30:01;;;;;;;14.48;11.98;;;15.30;99.90;;;;;;10396539;28;20207;-75
2022/09/10 10:35:55;;;;;;;18.70;13.27;;;15.20;99.90;;;;;;10380709;28;20219;-78
2022/09/10 10:41:22;;;;;;;18.05;12.80;;;14.90;99.90;;;;;;10360549;28;20278;-79
2022/09/10 10:46:56;;;;;;;17.48;12.55;;;14.70;99.90;;;;;;10411246;28;20214;-80
2022/09/10 10:52:28;;;;;;;15.02;11.27;;;14.80;99.90;;;;;;10405737;28;20282;-76
2022/09/10 10:58:11;;;;;;;22.05;15.43;;;14.80;99.90;;;;;;10385842;28;20205;-76
2022/09/10 11:03:36;;;;;;;18.48;13.55;;;14.90;99.90;;;;;;10384611;28;20226;-76
2022/09/10 11:09:14;;;;;;;20.48;14.68;;;14.80;99.90;;;;;;10399187;28;20197;-77
2022/09/10 11:15:09;;;;;;;21.40;13.95;;;14.80;99.90;;;;;;10383452;28;20600;-73
2022/09/10 11:20:44;;;;;;;17.08;12.88;;;14.90;99.90;;;;;;10402395;28;20214;-77
2022/09/10 11:26:18;;;;;;;13.48;10.05;;;14.90;99.90;;;;;;10381963;28;20233;-84
2022/09/10 11:31:48;;;;;;;11.93;9.60;;;14.90;99.90;;;;;;10394013;28;20204;-78
2022/09/10 11:37:30;;;;;;;12.32;8.98;;;14.90;99.90;;;;;;10372543;28;20200;-78
2022/09/10 11:42:57;;;;;;;13.95;9.15;;;15.00;99.90;;;;;;10411773;28;20234;-78
2022/09/10 11:48:53;;;;;;;12.48;8.93;;;15.20;99.90;;;;;;10397866;28;20204;-74
2022/09/10 11:54:33;;;;;;;20.33;12.15;;;15.30;99.90;;;;;;10391713;28;20200;-73
2022/09/10 12:00:16;;;;;;;14.00;10.55;;;15.40;99.90;;;;;;10397289;28;20208;-76
2022/09/10 12:06:15;;;;;;;12.45;9.65;;;15.70;99.90;;;;;;10396656;28;20195;-75
2022/09/10 12:11:46;;;;;;;10.18;7.70;;;15.80;99.90;;;;;;10397785;28;20589;-76
2022/09/10 12:17:27;;;;;;;10.13;8.13;;;15.90;99.90;;;;;;10389405;28;20310;-76
2022/09/10 12:22:53;;;;;;;10.68;7.55;;;16.20;99.90;;;;;;10438401;28;20286;-76
2022/09/10 12:28:41;;;;;;;9.20;6.72;;;16.40;99.90;;;;;;10362389;28;20199;-76
2022/09/10 12:34:13;;;;;;;8.20;5.93;;;16.00;99.90;;;;;;10269859;28;20294;-75
2022/09/10 12:39:34;;;;;;;8.70;6.53;;;15.90;99.90;;;;;;10272448;29;20203;-76
2022/09/10 12:44:56;;;;;;;8.00;7.00;;;15.90;99.90;;;;;;10294392;28;20194;-76
2022/09/10 12:50:32;;;;;;;7.93;6.95;;;15.80;99.90;;;;;;10312131;28;20430;-81
2022/09/10 12:56:01;;;;;;;9.38;7.70;;;15.80;99.90;;;;;;10258441;29;20325;-81
2022/09/10 13:01:27;;;;;;;17.00;11.43;;;15.70;99.90;;;;;;10271803;29;20237;-81
2022/09/10 13:06:52;;;;;;;13.38;9.85;;;15.50;99.90;;;;;;10259846;28;20197;-76
2022/09/10 13:12:20;;;;;;;17.27;12.38;;;15.40;99.90;;;;;;10354966;28;20196;-76
2022/09/10 13:17:47;;;;;;;13.13;10.75;;;15.40;99.90;;;;;;10393908;28;20241;-76
2022/09/10 13:23:08;;;;;;;15.07;12.32;;;15.20;99.90;;;;;;10435203;28;20235;-77
2022/09/10 13:28:30;;;;;;;23.65;17.00;;;15.20;99.90;;;;;;10366907;28;20387;-75
2022/09/10 13:34:10;;;;;;;24.50;17.15;;;15.10;99.90;;;;;;10380351;28;20210;-76
2022/09/10 13:39:59;;;;;;;28.95;21.92;;;15.00;99.90;;;;;;10394303;28;20202;-76
2022/09/10 13:45:23;;;;;;;32.60;20.88;;;14.90;99.90;;;;;;10394058;28;20196;-77
2022/09/10 13:51:08;;;;;;;37.92;25.48;;;14.90;99.90;;;;;;10407454;28;20210;-75
2022/09/10 13:56:31;;;;;;;34.90;22.50;;;14.80;99.90;;;;;;10402182;28;20241;-76
2022/09/10 14:01:54;;;;;;;26.05;19.48;;;15.00;99.90;;;;;;10394531;28;20223;-75
2022/09/10 14:07:20;;;;;;;78.65;51.47;;;14.80;99.90;;;;;;10393781;28;20214;-78
2022/09/10 14:12:41;;;;;;;42.58;29.20;;;14.80;99.90;;;;;;10407541;28;20785;-78
2022/09/10 14:18:03;;;;;;;26.45;20.42;;;14.80;99.90;;;;;;10409701;28;20309;-81
2022/09/10 14:23:24;;;;;;;29.70;21.58;;;14.90;99.90;;;;;;10434114;28;20221;-77
2022/09/10 14:29:02;;;;;;;26.17;20.35;;;14.90;99.90;;;;;;10370770;28;20207;-82
2022/09/10 14:34:31;;;;;;;87.13;69.03;;;14.90;99.90;;;;;;10393749;28;20215;-81
2022/09/10 14:39:52;;;;;;;82.30;51.53;;;14.80;99.90;;;;;;10400242;28;20370;-80
2022/09/10 14:45:52;;;;;;;51.45;33.85;;;14.80;99.90;;;;;;10386717;28;20204;-81
2022/09/10 14:51:21;;;;;;;42.08;28.60;;;14.90;99.90;;;;;;10339658;28;20204;-75
2022/09/10 14:56:45;;;;;;;24.90;19.80;;;14.90;99.90;;;;;;10316125;28;20386;-77
2022/09/10 15:02:24;;;;;;;22.05;16.92;;;14.90;99.90;;;;;;10316264;28;20284;-76
2022/09/10 15:07:49;;;;;;;22.85;16.52;;;14.90;99.90;;;;;;10333597;28;20511;-77
2022/09/10 15:13:17;;;;;;;18.95;14.63;;;15.10;99.90;;;;;;10356349;28;20207;-76
2022/09/10 15:18:39;;;;;;;20.33;16.17;;;15.30;99.90;;;;;;10348090;28;20232;-76
2022/09/10 15:24:01;;;;;;;24.13;17.75;;;15.60;99.90;;;;;;10399416;28;20267;-76
2022/09/10 15:29:23;;;;;;;23.15;16.80;;;15.40;99.90;;;;;;10384727;28;20234;-81
2022/09/10 15:34:44;;;;;;;22.17;17.92;;;15.40;99.90;;;;;;10384605;28;20204;-76
2022/09/10 15:40:06;;;;;;;20.85;16.27;;;15.40;99.90;;;;;;10397638;28;20246;-76
2022/09/10 15:45:29;;;;;;;23.88;18.15;;;15.40;99.90;;;;;;10397713;28;20248;-76
2022/09/10 15:50:51;;;;;;;28.88;20.63;;;15.30;99.90;;;;;;10411832;28;20199;-82
2022/09/10 15:56:13;;;;;;;29.88;19.05;;;15.20;99.90;;;;;;10425027;28;20209;-78
2022/09/10 16:01:37;;;;;;;29.83;21.02;;;15.10;99.90;;;;;;10398368;28;20226;-76
2022/09/10 16:06:58;;;;;;;28.35;20.80;;;15.10;99.90;;;;;;10410841;28;20516;-77
2022/09/10 16:12:19;;;;;;;32.05;23.15;;;15.00;99.90;;;;;;10397551;28;20504;-76
2022/09/10 16:17:41;;;;;;;29.75;21.80;;;15.00;99.90;;;;;;10410559;28;20552;-76
2022/09/10 16:23:03;;;;;;;34.55;24.38;;;14.90;99.90;;;;;;10432074;28;20229;-77
2022/09/10 16:28:25;;;;;;;36.08;25.30;;;14.90;99.90;;;;;;10370494;28;20219;-72
2022/09/10 16:33:47;;;;;;;33.03;23.42;;;14.90;99.90;;;;;;10396936;28;20385;-76
2022/09/10 16:39:14;;;;;;;32.67;23.10;;;14.80;99.90;;;;;;10396822;28;20481;-75
2022/09/10 16:44:35;;;;;;;36.17;24.40;;;14.80;99.90;;;;;;10396535;28;20251;-75
2022/09/10 16:49:56;;;;;;;29.77;21.05;;;14.70;99.90;;;;;;10403170;28;20197;-76
2022/09/10 16:55:17;;;;;;;35.13;23.30;;;14.70;99.90;;;;;;10413395;28;20206;-76
2022/09/10 17:00:41;;;;;;;31.98;22.98;;;14.70;99.90;;;;;;10395729;28;20521;-76
2022/09/10 17:06:03;;;;;;;33.88;24.10;;;14.60;99.90;;;;;;10395870;28;20193;-76
2022/09/10 17:11:30;;;;;;;26.90;19.65;;;14.60;99.90;;;;;;10395054;28;20391;-76
2022/09/10 17:16:51;;;;;;;28.63;20.20;;;14.60;99.90;;;;;;10399557;28;20256;-77
2022/09/10 17:22:14;;;;;;;35.03;24.10;;;14.60;99.90;;;;;;10436542;28;20270;-76
2022/09/10 17:27:35;;;;;;;35.65;24.80;;;14.60;99.90;;;;;;10370703;28;20206;-76
2022/09/10 17:32:58;;;;;;;31.88;22.73;;;14.60;99.90;;;;;;10354600;28;20193;-76
2022/09/10 17:38:19;;;;;;;98.60;53.00;;;14.60;99.90;;;;;;10354743;28;20211;-75
2022/09/10 17:43:42;;;;;;;47.55;28.88;;;14.60;99.90;;;;;;10354518;28;20218;-75
2022/09/10 17:49:04;;;;;;;34.28;24.08;;;14.50;99.90;;;;;;10394458;28;20189;-75
2022/09/10 17:54:25;;;;;;;33.55;24.15;;;14.50;99.90;;;;;;10388529;28;20235;-76
2022/09/10 17:59:47;;;;;;;28.08;19.95;;;14.50;99.90;;;;;;10407761;28;20198;-75
2022/09/10 18:05:10;;;;;;;31.02;20.65;;;14.50;99.90;;;;;;10393575;28;20539;-76
2022/09/10 18:10:33;;;;;;;36.67;24.27;;;14.50;99.90;;;;;;10382605;28;20312;-75
2022/09/10 18:15:54;;;;;;;29.95;21.23;;;14.40;99.90;;;;;;10400957;28;20266;-76
2022/09/10 18:21:18;;;;;;;33.78;21.95;;;14.50;99.90;;;;;;10385349;28;20224;-75
2022/09/10 18:26:43;;;;;;;33.97;22.77;;;14.50;99.90;;;;;;10380214;28;20213;-76
2022/09/10 18:32:06;;;;;;;27.23;18.60;;;14.50;99.90;;;;;;10392031;28;20229;-76
2022/09/10 18:37:28;;;;;;;27.77;18.55;;;14.40;99.90;;;;;;10401675;28;20191;-75
2022/09/10 18:42:50;;;;;;;33.08;23.10;;;14.40;99.90;;;;;;10401555;28;20587;-76
2022/09/10 18:48:11;;;;;;;29.00;20.80;;;14.40;99.90;;;;;;10401212;28;20384;-75
2022/09/10 18:53:33;;;;;;;23.48;17.85;;;14.40;99.90;;;;;;10410146;28;20200;-77
2022/09/10 18:58:57;;;;;;;23.95;17.42;;;14.40;99.90;;;;;;10413597;28;20201;-82
2022/09/10 19:04:22;;;;;;;35.13;21.75;;;14.40;99.90;;;;;;10401058;28;20230;-76
2022/09/10 19:09:43;;;;;;;24.73;18.30;;;14.40;99.90;;;;;;10400580;28;20260;-76
2022/09/10 19:15:04;;;;;;;23.58;17.05;;;14.50;99.90;;;;;;10412707;28;20234;-76
2022/09/10 19:20:26;;;;;;;24.90;16.48;;;14.40;99.90;;;;;;10434418;28;20204;-75
2022/09/10 19:25:50;;;;;;;23.88;18.20;;;14.50;99.90;;;;;;10384874;28;20261;-77
2022/09/10 19:31:15;;;;;;;24.20;18.33;;;14.50;99.90;;;;;;10375425;28;20194;-75
2022/09/10 19:36:38;;;;;;;21.48;16.17;;;14.50;99.90;;;;;;10399338;28;20191;-78
2022/09/10 19:41:59;;;;;;;24.27;16.80;;;14.50;99.90;;;;;;10399045;28;20224;-78
2022/09/10 19:47:21;;;;;;;22.63;15.75;;;14.50;99.90;;;;;;10398817;28;20271;-77
2022/09/10 19:52:42;;;;;;;22.40;16.63;;;14.50;99.90;;;;;;10405542;28;20508;-77
2022/09/10 19:58:04;;;;;;;22.73;15.77;;;14.50;99.90;;;;;;10397244;28;20205;-77
2022/09/10 20:03:26;;;;;;;22.40;15.95;;;14.60;99.90;;;;;;10356498;28;20230;-75
2022/09/10 20:08:50;;;;;;;26.73;16.95;;;14.50;99.90;;;;;;10370423;28;20371;-76
2022/09/10 20:14:13;;;;;;;20.50;15.23;;;14.50;99.90;;;;;;10357079;28;20234;-76
2022/09/10 20:19:34;;;;;;;21.05;14.77;;;14.50;99.90;;;;;;10427074;28;20196;-76
2022/09/10 20:24:55;;;;;;;19.88;14.48;;;14.50;99.90;;;;;;10366401;28;20269;-76
2022/09/10 20:30:17;;;;;;;17.60;13.20;;;14.50;99.90;;;;;;10360315;28;20252;-77
2022/09/10 20:35:41;;;;;;;17.90;12.32;;;14.50;99.90;;;;;;10396107;28;20190;-76
2022/09/10 20:41:03;;;;;;;20.75;13.88;;;14.50;99.90;;;;;;10396653;28;20214;-76
2022/09/10 20:46:27;;;;;;;18.30;13.15;;;14.50;99.90;;;;;;10396077;28;20261;-76
2022/09/10 20:51:49;;;;;;;20.63;14.98;;;14.50;99.90;;;;;;10400949;28;20443;-76
2022/09/10 20:57:10;;;;;;;18.80;13.73;;;14.50;99.90;;;;;;10396312;28;20193;-78
2022/09/10 21:02:32;;;;;;;23.58;15.02;;;14.50;99.90;;;;;;10396070;28;20222;-78
2022/09/10 21:07:54;;;;;;;20.75;16.77;;;14.50;99.90;;;;;;10395261;28;20242;-76
2022/09/10 21:13:15;;;;;;;23.25;17.02;;;14.50;99.90;;;;;;10394885;28;20394;-76
2022/09/10 21:18:39;;;;;;;23.85;14.75;;;14.40;99.90;;;;;;10416359;28;20469;-76
2022/09/10 21:24:06;;;;;;;20.35;14.18;;;14.40;99.90;;;;;;10414308;28;20226;-76
2022/09/10 21:29:28;;;;;;;16.08;12.23;;;14.40;99.90;;;;;;10353917;28;20205;-78
2022/09/10 21:34:49;;;;;;;18.27;12.90;;;14.40;99.90;;;;;;10394819;28;20365;-75
2022/09/10 21:40:10;;;;;;;14.90;10.70;;;14.40;99.90;;;;;;10395240;28;20193;-82
2022/09/10 21:45:35;;;;;;;12.60;10.45;;;14.40;99.90;;;;;;10398512;28;20222;-77
2022/09/10 21:51:04;;;;;;;15.95;11.95;;;14.40;99.90;;;;;;10405606;28;20192;-76
2022/09/10 21:56:28;;;;;;;14.00;10.95;;;14.30;99.90;;;;;;10403010;28;20245;-77
2022/09/10 22:01:50;;;;;;;15.10;10.98;;;14.30;99.90;;;;;;10388067;28;20228;-77
2022/09/10 22:07:13;;;;;;;15.27;10.95;;;14.30;99.90;;;;;;10387712;28;20493;-76
2022/09/10 22:12:34;;;;;;;15.15;11.30;;;14.30;99.90;;;;;;10401811;28;20247;-75
2022/09/10 22:17:55;;;;;;;16.05;12.13;;;14.30;99.90;;;;;;10416517;28;20261;-77
2022/09/10 22:23:17;;;;;;;18.35;12.70;;;14.30;99.90;;;;;;10411064;28;20253;-76
2022/09/10 22:28:40;;;;;;;12.00;9.80;;;14.20;99.90;;;;;;10366847;28;20209;-83
2022/09/10 22:34:09;;;;;;;15.48;11.63;;;14.20;99.90;;;;;;10415234;28;20212;-81
2022/09/10 22:39:30;;;;;;;14.70;11.07;;;14.20;99.90;;;;;;10414677;28;20196;-76
2022/09/10 22:44:51;;;;;;;14.65;10.88;;;14.20;99.90;;;;;;10414431;28;20286;-76
2022/09/10 22:50:14;;;;;;;15.82;11.35;;;14.20;99.90;;;;;;10403627;28;20194;-79
2022/09/10 22:55:35;;;;;;;15.23;10.80;;;14.10;99.90;;;;;;10399091;28;20391;-77
2022/09/10 23:01:03;;;;;;;14.45;9.43;;;14.10;99.90;;;;;;10413529;28;20189;-76
2022/09/10 23:06:27;;;;;;;10.45;7.82;;;14.10;99.90;;;;;;10400765;28;20391;-76
2022/09/10 23:11:48;;;;;;;7.10;5.47;;;14.10;99.90;;;;;;10400677;28;20255;-76
2022/09/10 23:17:09;;;;;;;6.78;5.85;;;14.10;99.90;;;;;;10408902;28;20227;-77
2022/09/10 23:22:31;;;;;;;9.00;6.90;;;14.10;99.90;;;;;;10417336;28;20213;-78
2022/09/10 23:27:53;;;;;;;7.57;5.88;;;14.00;99.90;;;;;;10368263;28;20205;-76
2022/09/10 23:33:15;;;;;;;7.97;6.22;;;14.00;99.90;;;;;;10373988;28;20204;-78
2022/09/10 23:38:38;;;;;;;9.10;6.45;;;14.00;99.90;;;;;;10399285;28;20401;-78
2022/09/10 23:44:00;;;;;;;6.47;5.43;;;14.00;99.90;;;;;;10397998;28;20232;-76
2022/09/10 23:49:22;;;;;;;5.80;5.03;;;14.00;99.90;;;;;;10399695;28;20243;-76
2022/09/10 23:54:44;;;;;;;6.30;5.43;;;14.00;99.90;;;;;;10397408;28;20558;-77
